In Rescue
 
Open Full Screen Window  High Contrast Mode
Wind Gusting 00 knots
08
June 22, 2024 9:13 PM CDT
Weather Information
Wind Direction
  010 °
Wind Speed
  08 kt (9 mph)
Wind Gust
  00 kt (0 mph)
Altimeter
29.79 in
Visibility
7 SM
Temperature
18° C
64° F
Dewpoint
17° C
63° F
Humidity
94%
Sky Condition
Overcast @ 800 ft
IFR

METAR KANE 230213Z AUTO 01008KT 7SM OVC008 18/17 A2979 RMK AO2

FAA Disclaimer: The data displayed is for advisory purposes only and is not to be used for flight planning or operations.